Haskins, Ohio
Current Conditions -  °F | °C
As of 6:52 PM on Monday 22 Dec 2014 (Local Time) from KTOL Reporting Station
Haze Haze  
Wind Chill: 28°   Ceiling: 8500
Heat Index: 35°   Visibility: 6mi
Dew Point: 30°   Wind: 9mph
Humidity: 82%   Direction: 80°E
Pressure: 29.88"   Gusts: NA
Location:  41.46°N, 83.71°W
Report Text: KTOL 222352Z 08008KT 6SM HZ OVC085 02/M01 A2988 RMK AO2 SLP126 T00171011 10039 20011 58011
Loading
Personal Weather Stations






























Interactive Weather Map New forecast layout! Learn more

10-Day Weather Forecast

Advertisements
Track Severe Weather on mobile